Time;durP1;ratioP1;P1;durP2;ratioP2;P2;SDS_P1;SDS_P2;PMS_P1;PMS_P2;Temp;Humidity;BMP_temperature;BMP_pressure;BME280_temperature;BME280_humidity;BME280_pressure;Samples;Min_cycle;Max_cycle;Signal;HPM_P1;HPM_P2
2022/12/22 03:26:06;;;;;;;3.00;2.30;;;4.60;99.90;;;;;;5033243;28;20326;-75
2022/12/22 03:28:34;;;;;;;4.07;2.20;;;4.60;99.90;;;;;;5033119;28;20254;-75
2022/12/22 03:31:06;;;;;;;1.93;1.73;;;4.70;99.90;;;;;;5033333;28;20233;-78
2022/12/22 03:33:35;;;;;;;2.13;1.80;;;4.70;99.90;;;;;;5032516;28;20288;-75
2022/12/22 03:36:04;;;;;;;2.27;2.07;;;4.70;99.90;;;;;;5033425;28;20208;-75
2022/12/22 03:38:33;;;;;;;2.33;1.97;;;4.80;99.90;;;;;;5033273;28;20224;-74
2022/12/22 03:41:02;;;;;;;2.83;2.00;;;4.80;99.90;;;;;;5033140;28;20219;-77
2022/12/22 03:46:32;;;;;;;2.03;1.80;;;4.90;99.90;;;;;;5032584;28;20260;-73
2022/12/22 03:49:10;;;;;;;2.63;1.80;;;4.90;99.90;;;;;;5032821;28;20213;-77
2022/12/22 03:51:41;;;;;;;3.87;1.87;;;5.00;99.90;;;;;;5031967;28;20278;-75
2022/12/22 03:54:10;;;;;;;2.37;1.70;;;5.00;99.90;;;;;;5033245;28;20267;-78
2022/12/22 03:56:39;;;;;;;2.17;1.90;;;4.90;99.90;;;;;;5033212;28;20209;-74
2022/12/22 03:59:11;;;;;;;2.70;1.70;;;5.00;99.90;;;;;;5032520;28;20710;-76
2022/12/22 04:01:42;;;;;;;1.80;1.57;;;5.00;99.90;;;;;;5033050;28;20200;-79
2022/12/22 04:04:13;;;;;;;1.67;1.57;;;5.00;99.90;;;;;;5042906;28;20204;-77
2022/12/22 04:06:41;;;;;;;1.73;1.60;;;5.00;99.90;;;;;;5041881;28;20529;-78
2022/12/22 04:09:10;;;;;;;1.90;1.80;;;5.00;99.90;;;;;;5036015;28;20208;-79
2022/12/22 04:14:24;;;;;;;3.73;1.43;;;5.10;99.90;;;;;;5036965;28;20197;-78
2022/12/22 04:17:01;;;;;;;2.10;1.23;;;5.20;99.90;;;;;;5035715;28;20232;-79
2022/12/22 04:19:31;;;;;;;4.50;1.40;;;5.30;99.90;;;;;;5036806;28;20291;-79
2022/12/22 04:21:59;;;;;;;2.83;1.50;;;5.50;99.90;;;;;;5036263;28;20227;-77
2022/12/22 04:24:30;;;;;;;1.30;1.20;;;5.50;99.90;;;;;;5036940;28;20193;-78
2022/12/22 04:26:58;;;;;;;2.23;1.30;;;5.50;99.90;;;;;;5033585;28;20674;-79
2022/12/22 04:29:26;;;;;;;1.70;1.30;;;5.60;99.90;;;;;;5036757;28;20633;-80
2022/12/22 04:31:54;;;;;;;1.40;1.30;;;5.60;99.90;;;;;;5036632;28;20743;-79
2022/12/22 04:34:22;;;;;;;3.00;1.17;;;5.50;99.90;;;;;;5036086;28;20251;-78
2022/12/22 04:36:52;;;;;;;1.80;1.30;;;5.50;99.90;;;;;;5036766;28;20212;-79
2022/12/22 04:39:20;;;;;;;1.53;1.30;;;5.50;99.90;;;;;;5036366;28;20227;-80
2022/12/22 04:41:48;;;;;;;2.93;1.50;;;5.40;99.90;;;;;;5036997;28;20334;-76
2022/12/22 04:44:16;;;;;;;3.13;1.40;;;5.50;99.90;;;;;;5036265;28;20288;-76
2022/12/22 04:46:45;;;;;;;2.30;1.50;;;5.50;99.90;;;;;;5036248;28;20293;-78
2022/12/22 04:49:13;;;;;;;3.80;1.60;;;5.50;99.90;;;;;;5036047;28;20217;-79
2022/12/22 04:51:41;;;;;;;2.63;1.50;;;5.50;99.90;;;;;;5035493;28;20217;-78
2022/12/22 04:54:11;;;;;;;3.57;1.50;;;5.50;99.90;;;;;;5026991;28;20754;-78
2022/12/22 04:56:39;;;;;;;2.90;1.50;;;5.50;99.90;;;;;;5036558;28;20215;-77
2022/12/22 04:59:07;;;;;;;1.63;1.30;;;5.50;99.90;;;;;;5035947;28;20227;-78
2022/12/22 05:01:35;;;;;;;3.23;1.43;;;5.60;99.90;;;;;;5035606;28;20209;-77
2022/12/22 05:04:04;;;;;;;2.90;1.40;;;5.50;99.90;;;;;;5036023;28;20213;-78
2022/12/22 05:06:32;;;;;;;2.40;1.40;;;5.60;99.90;;;;;;5036272;28;20213;-77
2022/12/22 05:09:00;;;;;;;2.03;1.40;;;5.70;99.90;;;;;;5034522;28;20628;-76
2022/12/22 05:11:29;;;;;;;1.30;1.20;;;5.80;99.90;;;;;;5038741;28;20216;-75
2022/12/22 05:13:57;;;;;;;2.07;1.30;;;5.90;99.90;;;;;;5040345;28;20223;-76
2022/12/22 05:16:33;;;;;;;2.27;1.47;;;5.90;99.90;;;;;;5038959;28;20197;-80
2022/12/22 05:19:02;;;;;;;1.30;1.20;;;6.00;99.90;;;;;;5033830;28;20237;-72
2022/12/22 05:21:30;;;;;;;5.50;1.40;;;5.90;99.90;;;;;;5034591;28;20300;-81
2022/12/22 05:23:58;;;;;;;2.53;1.50;;;6.00;99.90;;;;;;5035865;28;20243;-76
2022/12/22 05:26:27;;;;;;;2.93;1.47;;;5.90;99.90;;;;;;5035673;28;20226;-78
2022/12/22 05:28:56;;;;;;;3.90;1.20;;;6.00;99.90;;;;;;5025101;28;20728;-79
2022/12/22 05:31:26;;;;;;;1.37;1.20;;;6.00;99.90;;;;;;5031851;28;20205;-78
2022/12/22 05:33:54;;;;;;;2.03;1.30;;;6.00;99.90;;;;;;5035624;28;20215;-76
2022/12/22 05:36:22;;;;;;;1.83;1.20;;;6.10;99.90;;;;;;5032699;28;20213;-74
2022/12/22 05:38:50;;;;;;;2.50;1.30;;;6.10;99.90;;;;;;5021258;28;20315;-76
2022/12/22 05:41:18;;;;;;;2.13;1.30;;;6.20;99.90;;;;;;5035896;28;20317;-73
2022/12/22 05:43:47;;;;;;;2.40;1.30;;;6.20;99.90;;;;;;5035439;28;20211;-75
2022/12/22 05:46:16;;;;;;;3.97;1.30;;;6.30;99.90;;;;;;5036375;28;20209;-79
2022/12/22 05:48:44;;;;;;;1.10;1.00;;;6.30;99.90;;;;;;5035418;28;20213;-76
2022/12/22 05:51:12;;;;;;;2.70;1.20;;;6.20;99.90;;;;;;5035286;28;20205;-75
2022/12/22 05:53:41;;;;;;;1.70;1.40;;;6.20;99.90;;;;;;5034999;28;20603;-79
2022/12/22 05:56:09;;;;;;;3.10;1.30;;;6.20;99.90;;;;;;5034320;28;20295;-74
2022/12/22 05:58:39;;;;;;;1.90;1.40;;;6.20;99.90;;;;;;5035211;28;20215;-74
2022/12/22 06:01:07;;;;;;;2.13;1.10;;;6.20;99.90;;;;;;5038853;28;20271;-77
2022/12/22 06:03:37;;;;;;;1.80;1.17;;;6.10;99.90;;;;;;5038329;28;20204;-77
2022/12/22 06:06:06;;;;;;;2.90;1.30;;;6.10;99.90;;;;;;5033194;28;20205;-77
2022/12/22 06:08:35;;;;;;;3.20;1.40;;;5.90;99.90;;;;;;5037178;28;20683;-75
2022/12/22 06:11:03;;;;;;;2.50;1.40;;;5.90;99.90;;;;;;5035944;28;20204;-75
2022/12/22 06:13:31;;;;;;;5.03;1.70;;;5.80;99.90;;;;;;5035592;28;20208;-74
2022/12/22 06:15:59;;;;;;;2.50;1.53;;;5.70;99.90;;;;;;5035226;28;20292;-74
2022/12/22 06:18:28;;;;;;;4.37;1.53;;;5.70;99.90;;;;;;5035240;28;20205;-76
2022/12/22 06:20:57;;;;;;;1.97;1.50;;;5.70;99.90;;;;;;5034219;28;20225;-75
2022/12/22 06:23:25;;;;;;;2.60;1.00;;;5.70;99.90;;;;;;5033634;28;20281;-76
2022/12/22 06:26:16;;;;;;;1.83;1.30;;;5.70;99.90;;;;;;5030670;28;20293;-75
2022/12/22 06:29:32;;;;;;;2.50;1.20;;;6.20;99.90;;;;;;5110160;27;20683;-75
2022/12/22 06:32:01;;;;;;;1.37;1.27;;;5.70;99.90;;;;;;5097152;28;20295;-77
2022/12/22 06:34:29;;;;;;;2.30;1.37;;;5.70;99.90;;;;;;5094903;28;20238;-77
2022/12/22 06:36:57;;;;;;;3.90;1.27;;;5.70;99.90;;;;;;5094157;28;20251;-74
2022/12/22 06:39:25;;;;;;;2.60;1.50;;;5.60;99.90;;;;;;5090845;28;20215;-77
2022/12/22 06:44:40;;;;;;;3.80;1.50;;;5.60;99.90;;;;;;5070253;28;20211;-76
2022/12/22 06:47:08;;;;;;;3.50;1.40;;;5.50;99.90;;;;;;5075002;28;20574;-76
2022/12/22 06:49:36;;;;;;;1.63;1.20;;;5.60;99.90;;;;;;5070653;28;20317;-75
2022/12/22 06:52:07;;;;;;;2.00;1.23;;;5.60;99.90;;;;;;5070350;28;20212;-74
2022/12/22 06:54:36;;;;;;;1.53;1.20;;;5.80;99.90;;;;;;5087328;28;20218;-79
2022/12/22 06:57:07;;;;;;;1.43;0.93;;;5.90;99.90;;;;;;5079251;28;20238;-75
2022/12/22 06:59:35;;;;;;;2.00;0.90;;;6.00;99.90;;;;;;5070552;28;20267;-75
2022/12/22 07:02:05;;;;;;;1.13;1.00;;;6.20;99.90;;;;;;5088902;28;20211;-75
2022/12/22 07:04:33;;;;;;;4.77;1.30;;;6.40;99.90;;;;;;5106419;28;20226;-75
2022/12/22 07:07:01;;;;;;;2.07;1.10;;;6.40;99.90;;;;;;5110805;28;20210;-76
2022/12/22 07:09:30;;;;;;;2.40;1.30;;;6.40;99.90;;;;;;5111236;28;20333;-75
2022/12/22 07:11:58;;;;;;;1.40;1.10;;;6.40;99.90;;;;;;5108439;28;20293;-79
2022/12/22 07:14:26;;;;;;;2.00;1.20;;;6.40;99.90;;;;;;5091945;28;20289;-74
2022/12/22 07:16:55;;;;;;;1.50;1.10;;;6.30;99.90;;;;;;5093593;28;20306;-74
2022/12/22 07:19:25;;;;;;;4.90;1.23;;;6.30;99.90;;;;;;5092382;28;20237;-77
2022/12/22 07:21:53;;;;;;;2.50;1.00;;;6.20;99.90;;;;;;5090664;28;20298;-76
2022/12/22 07:24:24;;;;;;;4.00;1.27;;;6.20;99.90;;;;;;5090118;28;20628;-75
2022/12/22 07:26:53;;;;;;;1.67;1.00;;;6.30;99.90;;;;;;5089885;28;20199;-75
2022/12/22 07:29:21;;;;;;;1.50;1.10;;;6.30;99.90;;;;;;5093373;28;20234;-74
2022/12/22 07:31:49;;;;;;;1.97;1.20;;;6.40;99.90;;;;;;5102050;28;20224;-77
2022/12/22 07:34:20;;;;;;;4.67;1.43;;;6.40;99.90;;;;;;5100637;28;20692;-80
2022/12/22 07:36:50;;;;;;;2.57;1.20;;;6.50;99.90;;;;;;5089948;28;20222;-76
2022/12/22 07:39:18;;;;;;;2.53;1.10;;;6.80;99.90;;;;;;5099753;28;20245;-78
2022/12/22 07:44:32;;;;;;;1.57;0.90;;;6.90;99.90;;;;;;5084044;28;20306;-76
2022/12/22 07:47:00;;;;;;;2.73;1.10;;;7.00;99.90;;;;;;5076638;28;20294;-77
2022/12/22 07:52:15;;;;;;;1.70;0.93;;;7.10;99.90;;;;;;5086232;28;20205;-77
2022/12/22 07:54:44;;;;;;;6.33;3.20;;;7.30;99.90;;;;;;5087995;28;20230;-75
2022/12/22 07:57:12;;;;;;;3.50;1.17;;;7.40;99.90;;;;;;5074912;28;20207;-79
2022/12/22 07:59:40;;;;;;;4.97;1.93;;;7.60;99.90;;;;;;5081935;28;20214;-78
2022/12/22 08:02:11;;;;;;;4.93;2.70;;;8.20;99.90;;;;;;5094942;28;20245;-75
2022/12/22 08:04:39;;;;;;;4.07;1.90;;;8.40;99.90;;;;;;5091526;28;20226;-76
2022/12/22 08:07:07;;;;;;;6.33;2.40;;;8.40;99.90;;;;;;5076963;28;20668;-74
2022/12/22 08:09:37;;;;;;;3.97;2.20;;;8.40;99.90;;;;;;5082438;28;20227;-74
2022/12/22 08:12:05;;;;;;;3.57;1.50;;;8.70;99.90;;;;;;5095026;28;20297;-79
2022/12/22 08:14:34;;;;;;;2.97;1.20;;;8.90;99.90;;;;;;5094931;28;20753;-75
2022/12/22 08:17:02;;;;;;;1.53;0.80;;;9.10;99.90;;;;;;5079267;28;20215;-75
2022/12/22 08:19:31;;;;;;;5.17;2.63;;;9.70;99.90;;;;;;5054985;28;20228;-75
2022/12/22 08:22:00;;;;;;;3.27;1.10;;;10.20;99.90;;;;;;5066015;28;20214;-75
2022/12/22 08:24:28;;;;;;;1.50;0.90;;;10.80;99.90;;;;;;5073579;28;20263;-74
2022/12/22 08:27:02;;;;;;;2.10;1.10;;;10.90;99.90;;;;;;5095329;28;20249;-74
2022/12/22 08:29:35;;;;;;;2.27;1.20;;;11.50;99.90;;;;;;5089543;28;20299;-75
2022/12/22 08:32:04;;;;;;;3.70;1.20;;;11.90;99.90;;;;;;5081553;28;20275;-75
2022/12/22 08:34:32;;;;;;;3.50;1.20;;;12.10;99.90;;;;;;5058063;28;20208;-74
2022/12/22 08:37:05;;;;;;;2.80;1.40;;;12.20;99.90;;;;;;5057620;28;20286;-74
2022/12/22 08:39:39;;;;;;;3.60;1.20;;;12.40;99.90;;;;;;5085127;28;20238;-75
2022/12/22 08:42:13;;;;;;;4.37;1.30;;;12.30;99.90;;;;;;5094045;28;20238;-75
2022/12/22 08:44:41;;;;;;;2.93;1.10;;;12.10;99.90;;;;;;5094204;28;20279;-74
2022/12/22 08:47:09;;;;;;;2.47;1.10;;;12.60;99.90;;;;;;5092389;28;20207;-74
2022/12/22 08:49:44;;;;;;;2.60;1.10;;;12.70;99.90;;;;;;5078575;28;20307;-75
2022/12/22 08:52:12;;;;;;;4.17;1.50;;;12.70;99.90;;;;;;5071294;28;20238;-75
2022/12/22 08:54:46;;;;;;;2.20;1.20;;;12.40;99.90;;;;;;5074159;28;20317;-74
2022/12/22 08:57:15;;;;;;;3.60;1.20;;;11.90;99.90;;;;;;5075675;28;20258;-75
2022/12/22 08:59:46;;;;;;;3.87;1.20;;;11.30;99.90;;;;;;5063820;28;20216;-74
2022/12/22 09:02:14;;;;;;;2.40;1.20;;;11.00;99.90;;;;;;5083578;28;20314;-76
2022/12/22 09:04:43;;;;;;;6.30;1.40;;;10.80;99.90;;;;;;5076184;28;20215;-75
2022/12/22 09:07:11;;;;;;;3.67;1.60;;;10.20;99.90;;;;;;5073535;28;20329;-76
2022/12/22 09:09:39;;;;;;;2.93;1.40;;;9.90;99.90;;;;;;5073747;28;20237;-79
2022/12/22 09:12:08;;;;;;;3.60;1.30;;;9.70;99.90;;;;;;5073978;28;20203;-75
2022/12/22 09:14:37;;;;;;;3.00;1.07;;;9.60;99.90;;;;;;5073343;28;21056;-79
2022/12/22 09:17:06;;;;;;;3.73;1.30;;;9.40;99.90;;;;;;5069434;28;20294;-77
2022/12/22 09:19:34;;;;;;;3.57;1.37;;;9.20;99.90;;;;;;5063841;28;20211;-80
2022/12/22 09:22:02;;;;;;;5.30;1.20;;;9.20;99.90;;;;;;5084129;28;20249;-76
2022/12/22 09:24:31;;;;;;;5.30;1.70;;;9.30;99.90;;;;;;5072842;28;20662;-75
2022/12/22 09:26:59;;;;;;;3.80;1.40;;;9.30;99.90;;;;;;5071476;28;20235;-75
2022/12/22 09:29:27;;;;;;;4.40;1.40;;;9.40;99.90;;;;;;5072627;28;20642;-75
2022/12/22 09:31:56;;;;;;;5.70;1.40;;;9.40;99.90;;;;;;5072789;28;20210;-78
2022/12/22 09:34:24;;;;;;;4.07;1.30;;;9.40;99.90;;;;;;5071960;28;20203;-77
2022/12/22 09:36:55;;;;;;;2.80;1.17;;;9.30;99.90;;;;;;5075364;28;20290;-77
2022/12/22 09:39:23;;;;;;;3.43;1.40;;;9.30;99.90;;;;;;5072520;28;20246;-77
2022/12/22 09:41:58;;;;;;;4.80;1.63;;;9.30;99.90;;;;;;5072235;28;20642;-77
2022/12/22 09:44:29;;;;;;;4.73;1.40;;;9.20;99.90;;;;;;5072251;28;20783;-78
2022/12/22 09:47:02;;;;;;;4.77;1.40;;;9.10;99.90;;;;;;5071649;28;20682;-78
2022/12/22 09:49:31;;;;;;;3.23;1.40;;;9.10;99.90;;;;;;5052161;28;20266;-79
2022/12/22 09:52:01;;;;;;;4.53;1.70;;;9.00;99.90;;;;;;5052406;28;20208;-79
2022/12/22 09:54:30;;;;;;;5.30;1.57;;;9.00;99.90;;;;;;5072280;28;20684;-79
2022/12/22 09:56:58;;;;;;;5.90;1.53;;;8.90;99.90;;;;;;5080317;28;20699;-78
2022/12/22 09:59:29;;;;;;;3.73;1.40;;;8.80;99.90;;;;;;5092720;28;20331;-76
2022/12/22 10:02:08;;;;;;;2.30;1.40;;;8.80;99.90;;;;;;5092427;28;20692;-78
2022/12/22 10:04:51;;;;;;;67.27;30.80;;;9.00;99.90;;;;;;5090425;28;20526;-79
2022/12/22 10:07:28;;;;;;;4.27;2.17;;;9.10;99.90;;;;;;5089243;28;20211;-78
2022/12/22 10:09:56;;;;;;;3.13;1.20;;;9.10;99.90;;;;;;5069500;28;20251;-77
2022/12/22 10:12:26;;;;;;;2.53;1.00;;;9.20;99.90;;;;;;5074107;28;20211;-77
2022/12/22 10:14:54;;;;;;;3.60;1.17;;;9.20;99.90;;;;;;5078834;28;20206;-76
2022/12/22 10:17:28;;;;;;;3.60;1.50;;;9.10;99.90;;;;;;5092512;28;20245;-73
2022/12/22 10:20:20;;;;;;;3.67;1.43;;;9.20;99.90;;;;;;5077988;28;20227;-76
2022/12/22 10:22:51;;;;;;;4.53;1.30;;;9.30;99.90;;;;;;5070776;28;20495;-78
2022/12/22 10:25:32;;;;;;;6.30;1.57;;;9.30;99.90;;;;;;5078540;28;20203;-77
2022/12/22 10:28:25;;;;;;;3.90;1.20;;;9.40;99.90;;;;;;5064106;28;20677;-75
2022/12/22 10:31:14;;;;;;;3.87;1.80;;;9.70;99.90;;;;;;5067739;28;20224;-75
2022/12/22 10:33:46;;;;;;;5.40;2.40;;;9.90;99.90;;;;;;5070230;28;20227;-74
2022/12/22 10:36:19;;;;;;;8.73;3.43;;;10.00;99.90;;;;;;5071667;28;20759;-74
2022/12/22 10:38:58;;;;;;;3.87;1.40;;;10.00;99.90;;;;;;5069617;28;20199;-71
2022/12/22 10:41:29;;;;;;;4.23;1.80;;;9.80;99.90;;;;;;5071481;28;20210;-78
2022/12/22 10:44:00;;;;;;;5.70;2.37;;;9.80;99.90;;;;;;5077555;28;20292;-78
2022/12/22 10:46:36;;;;;;;5.20;2.00;;;9.80;99.90;;;;;;5078531;28;20211;-78
2022/12/22 10:49:20;;;;;;;4.00;2.13;;;9.70;99.90;;;;;;5069977;28;20540;-79
2022/12/22 10:51:51;;;;;;;4.30;1.50;;;9.70;99.90;;;;;;5071043;28;20202;-79
2022/12/22 10:54:32;;;;;;;2.93;1.10;;;9.80;99.90;;;;;;5069553;28;20202;-77
2022/12/22 10:57:02;;;;;;;3.87;1.50;;;9.90;99.90;;;;;;5069303;28;20195;-79
2022/12/22 10:59:32;;;;;;;4.90;1.80;;;9.90;99.90;;;;;;5091828;28;20276;-79
2022/12/22 11:02:27;;;;;;;4.67;1.70;;;9.90;99.90;;;;;;5091552;28;20254;-78
2022/12/22 11:05:04;;;;;;;4.50;1.50;;;9.90;99.90;;;;;;5069310;28;20204;-77
2022/12/22 11:07:35;;;;;;;5.20;1.50;;;9.80;99.90;;;;;;5068471;28;20227;-78
2022/12/22 11:10:16;;;;;;;2.70;1.33;;;9.70;99.90;;;;;;5071353;28;20259;-77
2022/12/22 11:13:07;;;;;;;5.00;1.50;;;9.70;99.90;;;;;;5071632;28;20672;-76
2022/12/22 11:15:41;;;;;;;6.57;2.50;;;9.60;99.90;;;;;;5082491;28;20202;-76
2022/12/22 11:18:24;;;;;;;5.40;1.70;;;9.70;99.90;;;;;;5095205;28;20744;-78
2022/12/22 11:21:03;;;;;;;3.17;1.43;;;9.80;99.90;;;;;;5075246;28;20218;-79
2022/12/22 11:23:38;;;;;;;3.47;1.60;;;9.90;99.90;;;;;;5073369;28;20191;-78
2022/12/22 11:26:20;;;;;;;5.37;1.40;;;10.00;99.90;;;;;;5072573;28;20259;-77
2022/12/22 11:29:17;;;;;;;5.07;1.90;;;10.10;99.90;;;;;;5074446;28;20756;-77
2022/12/22 11:32:00;;;;;;;4.90;1.40;;;10.20;99.90;;;;;;5062924;28;20815;-75
2022/12/22 11:34:45;;;;;;;3.80;1.60;;;10.20;99.90;;;;;;5073537;28;20195;-78
2022/12/22 11:37:30;;;;;;;8.83;1.20;;;10.30;99.90;;;;;;5074238;28;20242;-79
2022/12/22 11:40:08;;;;;;;3.80;1.40;;;10.20;99.90;;;;;;5072860;28;20209;-78
2022/12/22 11:42:52;;;;;;;5.97;1.30;;;10.00;99.90;;;;;;5074646;28;20215;-78
2022/12/22 11:45:38;;;;;;;2.33;1.30;;;9.70;99.90;;;;;;5074035;28;20210;-76
2022/12/22 11:48:29;;;;;;;4.63;1.47;;;9.40;99.90;;;;;;5073395;28;20184;-80
2022/12/22 11:51:05;;;;;;;7.23;2.10;;;9.10;99.90;;;;;;5075320;28;20219;-79
2022/12/22 11:54:02;;;;;;;3.53;1.37;;;8.80;99.90;;;;;;5079502;28;20206;-80
2022/12/22 11:56:40;;;;;;;9.90;1.70;;;8.70;99.90;;;;;;5095033;28;20697;-79
2022/12/22 11:59:27;;;;;;;7.30;1.97;;;8.40;99.90;;;;;;5093130;28;20206;-79
2022/12/22 12:02:20;;;;;;;6.13;1.47;;;8.30;99.90;;;;;;5094997;28;20195;-78
2022/12/22 12:05:16;;;;;;;6.37;1.60;;;8.10;99.90;;;;;;5084008;28;20211;-80
2022/12/22 12:07:48;;;;;;;4.50;1.70;;;7.90;99.90;;;;;;5075139;28;20302;-78
2022/12/22 12:10:23;;;;;;;7.67;1.67;;;7.90;99.90;;;;;;5078124;28;20218;-77
2022/12/22 12:13:01;;;;;;;7.87;2.73;;;7.80;99.90;;;;;;5074509;28;20200;-77
2022/12/22 12:15:32;;;;;;;9.23;2.13;;;7.80;99.90;;;;;;5077210;28;20211;-78
2022/12/22 12:18:31;;;;;;;7.23;1.80;;;7.80;99.90;;;;;;5094944;28;20656;-78
2022/12/22 12:21:16;;;;;;;5.67;2.00;;;7.80;99.90;;;;;;5094517;28;20280;-78
2022/12/22 12:23:58;;;;;;;6.70;1.80;;;7.90;99.90;;;;;;5094713;28;20562;-75
2022/12/22 12:26:31;;;;;;;6.17;2.03;;;7.90;99.90;;;;;;5090901;28;21629;-78
2022/12/22 12:29:13;;;;;;;6.87;1.80;;;8.10;99.90;;;;;;5094074;28;20652;-77
2022/12/22 12:31:45;;;;;;;9.53;2.37;;;8.10;99.90;;;;;;5092457;28;20640;-80
2022/12/22 12:34:16;;;;;;;6.40;1.70;;;8.20;99.90;;;;;;5093377;28;20198;-80
2022/12/22 12:39:27;;;;;;;5.13;1.67;;;8.20;99.90;;;;;;5037614;23;20288;-77
2022/12/22 12:42:04;;;;;;;8.00;2.00;;;8.20;99.90;;;;;;4976369;28;20304;-77
2022/12/22 12:44:36;;;;;;;9.60;1.90;;;8.30;99.90;;;;;;4988293;28;20215;-75
2022/12/22 12:47:23;;;;;;;7.10;2.03;;;8.40;99.90;;;;;;4976839;28;20313;-76
2022/12/22 12:50:01;;;;;;;9.77;2.07;;;8.50;99.90;;;;;;4975913;28;20584;-77
2022/12/22 12:53:14;;;;;;;7.37;2.33;;;8.40;99.90;;;;;;4975152;28;20222;-76
2022/12/22 12:56:07;;;;;;;5.73;2.60;;;8.50;99.90;;;;;;4959413;28;20201;-77
2022/12/22 12:59:03;;;;;;;7.97;2.50;;;8.50;99.90;;;;;;4995230;28;20225;-77
2022/12/22 13:01:59;;;;;;;7.43;2.23;;;8.50;99.90;;;;;;4995692;28;20616;-75
2022/12/22 13:05:00;;;;;;;8.70;2.57;;;8.70;99.90;;;;;;4997076;28;20265;-75
2022/12/22 13:08:16;;;;;;;6.57;2.17;;;8.70;99.90;;;;;;5001882;28;20293;-74
2022/12/22 13:11:23;;;;;;;9.13;2.30;;;8.90;99.90;;;;;;4977650;28;20235;-75
2022/12/22 13:14:50;;;;;;;18.73;6.97;;;8.90;99.90;;;;;;4991595;28;20692;-76
2022/12/22 13:17:47;;;;;;;35.87;16.80;;;9.00;99.90;;;;;;4993736;28;20300;-76
2022/12/22 13:20:26;;;;;;;56.00;25.90;;;9.20;99.90;;;;;;4992215;28;20292;-75
2022/12/22 13:23:00;;;;;;;33.10;13.20;;;9.30;99.90;;;;;;4993360;28;20214;-77
2022/12/22 13:25:42;;;;;;;16.60;7.13;;;9.30;99.90;;;;;;4993636;28;20757;-76
2022/12/22 13:28:16;;;;;;;39.17;18.13;;;9.40;99.90;;;;;;4995134;28;20210;-76
2022/12/22 13:30:48;;;;;;;98.73;43.17;;;9.30;99.90;;;;;;4981559;28;20245;-76
2022/12/22 13:33:19;;;;;;;36.77;24.43;;;9.40;99.90;;;;;;4993437;28;20206;-75
2022/12/22 13:35:49;;;;;;;12.47;6.33;;;9.40;99.90;;;;;;4989441;28;20202;-75
2022/12/22 13:38:30;;;;;;;9.17;3.20;;;9.50;99.90;;;;;;4992342;28;20249;-73
2022/12/22 13:41:00;;;;;;;5.10;2.20;;;9.60;99.90;;;;;;4994807;28;20215;-74
2022/12/22 13:43:31;;;;;;;5.37;2.00;;;9.60;99.90;;;;;;4983022;28;20675;-76
2022/12/22 13:46:03;;;;;;;7.43;2.57;;;9.60;99.90;;;;;;4987016;28;20447;-75
2022/12/22 13:48:38;;;;;;;9.30;2.70;;;9.60;99.90;;;;;;4987706;28;20222;-77
2022/12/22 13:51:18;;;;;;;4.67;1.60;;;9.70;99.90;;;;;;4992480;28;20226;-76
2022/12/22 13:53:50;;;;;;;7.53;1.90;;;9.80;99.90;;;;;;4985487;28;20284;-77
2022/12/22 13:56:39;;;;;;;6.80;2.07;;;9.80;99.90;;;;;;4975673;28;20330;-77
2022/12/22 13:59:21;;;;;;;7.97;2.73;;;9.80;99.90;;;;;;4990828;28;20198;-75
2022/12/22 14:01:52;;;;;;;8.77;2.43;;;9.90;99.90;;;;;;4993039;28;20200;-77
2022/12/22 14:04:20;;;;;;;7.03;2.40;;;9.80;99.90;;;;;;4985960;28;20258;-74
2022/12/22 14:06:48;;;;;;;7.70;2.67;;;9.80;99.90;;;;;;4981729;28;20234;-76
2022/12/22 14:09:18;;;;;;;8.10;2.67;;;9.80;99.90;;;;;;4991656;28;20730;-75
2022/12/22 14:11:49;;;;;;;9.07;2.10;;;9.80;99.90;;;;;;4990694;28;20233;-76
2022/12/22 14:14:23;;;;;;;6.30;1.80;;;9.80;99.90;;;;;;4986154;28;20742;-77
2022/12/22 14:16:56;;;;;;;8.90;2.27;;;9.90;99.90;;;;;;4978335;28;20243;-76
2022/12/22 14:19:26;;;;;;;9.53;2.40;;;9.90;99.90;;;;;;4988731;28;20296;-77
2022/12/22 14:22:03;;;;;;;7.20;1.90;;;9.90;99.90;;;;;;4973803;28;20301;-76
2022/12/22 14:24:35;;;;;;;5.93;2.10;;;9.90;99.90;;;;;;4989901;28;20272;-75
2022/12/22 14:27:11;;;;;;;6.00;1.90;;;9.80;99.90;;;;;;4992751;28;20210;-76
2022/12/22 14:29:41;;;;;;;8.33;2.80;;;9.90;99.90;;;;;;4980595;28;20205;-76
2022/12/22 14:32:31;;;;;;;7.57;2.23;;;9.90;99.90;;;;;;4992862;28;20242;-75
2022/12/22 14:34:59;;;;;;;7.93;2.00;;;9.90;99.90;;;;;;4984463;28;20214;-75
2022/12/22 14:37:28;;;;;;;10.27;2.50;;;9.90;99.90;;;;;;4988491;28;20612;-75
2022/12/22 14:40:00;;;;;;;7.80;2.53;;;9.90;99.90;;;;;;4975019;28;20287;-75
2022/12/22 14:42:28;;;;;;;8.30;2.10;;;10.00;99.90;;;;;;4973157;28;20207;-76
2022/12/22 14:44:57;;;;;;;9.37;2.40;;;10.00;99.90;;;;;;4973516;28;20568;-76
2022/12/22 14:47:27;;;;;;;10.00;2.77;;;9.90;99.90;;;;;;4971073;28;20305;-76
2022/12/22 14:49:58;;;;;;;10.20;2.70;;;9.90;99.90;;;;;;4978680;28;20293;-75
2022/12/22 14:52:34;;;;;;;8.03;2.40;;;9.90;99.90;;;;;;4983565;28;20754;-76
2022/12/22 14:55:04;;;;;;;9.60;2.60;;;9.90;99.90;;;;;;4995823;28;20632;-75
2022/12/22 14:57:37;;;;;;;10.97;2.30;;;9.90;99.90;;;;;;4995898;28;20210;-76
2022/12/22 15:00:10;;;;;;;11.83;2.50;;;9.80;99.90;;;;;;4996714;28;20220;-79
2022/12/22 15:02:48;;;;;;;10.37;2.57;;;9.90;99.90;;;;;;5002584;28;20272;-75
2022/12/22 15:05:25;;;;;;;7.70;2.30;;;9.90;99.90;;;;;;5003002;28;20278;-77
2022/12/22 15:07:56;;;;;;;11.70;3.17;;;9.90;99.90;;;;;;5000468;28;20632;-77
2022/12/22 15:10:39;;;;;;;9.77;2.53;;;9.90;99.90;;;;;;4997798;28;20537;-76
2022/12/22 15:13:13;;;;;;;10.83;2.87;;;9.90;99.90;;;;;;4998094;28;20667;-76
2022/12/22 15:15:42;;;;;;;12.50;3.07;;;9.90;99.90;;;;;;4997522;28;20597;-76
2022/12/22 15:18:14;;;;;;;14.70;3.13;;;9.90;99.90;;;;;;4997949;28;20620;-75
2022/12/22 15:20:43;;;;;;;11.27;2.73;;;9.90;99.90;;;;;;4996583;28;20210;-74
2022/12/22 15:23:15;;;;;;;11.80;2.83;;;9.90;99.90;;;;;;4997198;28;20202;-77
2022/12/22 15:25:44;;;;;;;14.40;2.97;;;9.90;99.90;;;;;;4997750;28;20194;-75
2022/12/22 15:28:15;;;;;;;10.33;2.70;;;9.90;99.90;;;;;;4987393;28;20679;-79
2022/12/22 15:30:43;;;;;;;11.27;2.60;;;9.90;99.90;;;;;;4999803;28;20680;-77
2022/12/22 15:33:18;;;;;;;12.20;3.00;;;9.90;99.90;;;;;;4991981;28;20230;-74
2022/12/22 15:35:49;;;;;;;10.27;2.70;;;9.90;99.90;;;;;;4991677;28;20776;-77
2022/12/22 15:38:19;;;;;;;10.60;2.77;;;9.90;99.90;;;;;;4995593;28;20337;-74
2022/12/22 15:40:48;;;;;;;10.77;3.07;;;9.90;99.90;;;;;;4996979;28;20682;-76
2022/12/22 15:43:16;;;;;;;9.97;3.37;;;9.80;99.90;;;;;;4996493;28;20248;-75
2022/12/22 15:46:06;;;;;;;10.87;2.97;;;9.90;99.90;;;;;;4997134;28;20218;-76
2022/12/22 15:48:38;;;;;;;10.73;2.70;;;9.80;99.90;;;;;;4981114;28;20222;-76
2022/12/22 15:51:20;;;;;;;10.57;2.70;;;9.70;99.90;;;;;;4978333;28;20573;-76
2022/12/22 15:53:48;;;;;;;9.77;3.30;;;9.70;99.90;;;;;;4978449;28;20221;-77
2022/12/22 15:56:20;;;;;;;11.83;3.10;;;9.70;99.90;;;;;;4982565;28;20221;-76
2022/12/22 15:58:48;;;;;;;10.40;3.00;;;9.60;99.90;;;;;;4992801;28;20194;-75
2022/12/22 16:01:17;;;;;;;8.73;2.70;;;9.70;99.90;;;;;;4995988;28;20698;-77
2022/12/22 16:03:47;;;;;;;16.10;3.10;;;9.70;99.90;;;;;;4998191;28;20214;-78
2022/12/22 16:06:18;;;;;;;12.43;3.03;;;9.60;99.90;;;;;;4996670;28;20214;-78
2022/12/22 16:08:49;;;;;;;10.17;2.90;;;9.70;99.90;;;;;;4989711;28;20245;-74
2022/12/22 16:11:18;;;;;;;11.87;3.00;;;9.60;99.90;;;;;;4996728;28;20198;-77
2022/12/22 16:13:48;;;;;;;9.93;2.63;;;9.60;99.90;;;;;;4996049;28;20269;-76
2022/12/22 16:16:16;;;;;;;12.70;3.03;;;9.60;99.90;;;;;;4997171;28;20216;-78
2022/12/22 16:18:44;;;;;;;10.00;2.83;;;9.70;99.90;;;;;;4997087;28;20710;-76
2022/12/22 16:21:19;;;;;;;10.20;2.50;;;9.70;99.90;;;;;;4997449;28;20238;-76
2022/12/22 16:23:50;;;;;;;12.23;2.87;;;9.70;99.90;;;;;;4997714;28;20206;-78
2022/12/22 16:26:20;;;;;;;9.20;2.70;;;9.80;99.90;;;;;;4997808;28;20624;-76
2022/12/22 16:28:48;;;;;;;8.60;2.47;;;9.80;99.90;;;;;;4995839;28;20234;-78
2022/12/22 16:31:18;;;;;;;9.93;2.50;;;9.80;99.90;;;;;;4996299;28;20220;-77
2022/12/22 16:33:47;;;;;;;11.27;3.00;;;9.80;99.90;;;;;;4996405;28;20308;-75
2022/12/22 16:36:17;;;;;;;9.33;2.50;;;9.70;99.90;;;;;;4996593;28;20269;-77
2022/12/22 16:38:46;;;;;;;11.63;3.00;;;9.90;99.90;;;;;;4994799;28;20218;-75
2022/12/22 16:41:21;;;;;;;11.30;3.30;;;9.80;99.90;;;;;;4996893;28;20297;-76
2022/12/22 16:43:50;;;;;;;10.53;2.83;;;9.80;99.90;;;;;;4999087;28;20277;-76
2022/12/22 16:46:23;;;;;;;8.50;2.80;;;9.90;99.90;;;;;;4995124;28;20288;-78
2022/12/22 16:48:54;;;;;;;10.07;3.83;;;9.90;99.90;;;;;;4978817;28;20250;-77
2022/12/22 16:51:26;;;;;;;12.23;4.23;;;9.90;99.90;;;;;;4985748;28;20297;-74
2022/12/22 16:53:55;;;;;;;9.57;2.70;;;9.90;99.90;;;;;;4977494;28;20561;-77
2022/12/22 16:56:25;;;;;;;11.30;3.50;;;9.90;99.90;;;;;;4977884;28;20207;-75
2022/12/22 16:58:54;;;;;;;12.93;3.90;;;9.80;99.90;;;;;;4990784;28;20209;-76
2022/12/22 17:01:31;;;;;;;13.30;5.20;;;9.80;99.90;;;;;;4998086;28;20576;-77
2022/12/22 17:04:03;;;;;;;12.67;4.97;;;9.70;99.90;;;;;;4994036;28;20213;-76
2022/12/22 17:06:35;;;;;;;6.47;2.80;;;9.70;99.90;;;;;;4979725;28;20282;-75
2022/12/22 17:09:04;;;;;;;13.10;5.03;;;9.70;99.90;;;;;;4976947;28;20239;-77